Shanghai Express — DPCK — position and weather

sailwx.info

Track history (hours):
 
Tides and Currents Weather Stations Pressure Air Temp Water Temp Dewpoint Dewpoint Depression Visibility Wind Speed Wind Dir Waves Ship Positions

Shanghai Express

Last reported at 2015-May-27 03:29 UTC. Time now 2015-May-27 03:56 UTC.
Position N 36°23' W 002°34'.

Length 320.6 m; beam 42.8 m; draft 14.5 m.

Type: Ship (hazmat cat A). MMSI: 211367460.

Date/timePositionNaut miles runAvg speedWind from/ knotsBaromVisibWave heightAir tempDewpointWater temp
2015-May-27 03:29N 36°23' W 002°34'1919.4
2015-May-27 02:31N 36°26' W 002°11'1919.2
2015-May-27 01:33N 36°31' W 001°49'2119.3
2015-May-27 00:28N 36°36' W 001°24'1819.2
2015-May-26 23:33N 36°40' W 001°03'1918.8
2015-May-26 22:33N 36°45' W 000°40'1919.1
2015-May-26 21:33N 36°50' W 000°17'1919.1
2015-May-26 20:34N 36°55' E 000°06'1919.0
2015-May-26 19:33N 37°00' E 000°29'1919.0
2015-May-26 18:33N 37°05' E 000°52'1919.1
2015-May-26 17:33N 37°11' E 001°15'1919.2
2015-May-26 16:33N 37°15' E 001°39'1918.5
2015-May-26 15:33N 37°20' E 002°01'1818.4
2015-May-26 14:33N 37°25' E 002°24'5818.7
2015-May-26 11:26N 37°40' E 003°35'24918.6
2015-May-25 22:04N 38°45' E 008°40'1318.9
2015-May-25 21:24N 38°48' E 008°56'1617.9
2015-May-25 20:32N 39°01' E 009°07'1211.8
2015-May-25 19:33N 39°13' E 009°05'0 0.5
2015-May-25 18:33N 39°13' E 009°04'0 0.0
2015-May-25 17:33N 39°13' E 009°04'0 0.0
2015-May-25 16:32N 39°13' E 009°04'0 0.0
2015-May-25 15:32N 39°13' E 009°04'0 0.0
2015-May-25 14:31N 39°13' E 009°04'0 0.0
2015-May-25 13:31N 39°13' E 009°04'0 0.0
2015-May-25 12:31N 39°13' E 009°04'0 0.0
2015-May-25 11:33N 39°13' E 009°04'0 0.0
2015-May-25 10:33N 39°13' E 009°04'0 0.0
2015-May-25 09:33N 39°13' E 009°04'9 7.5
2015-May-25 08:19N 39°05' E 009°10'19920.3
2015-May-24 22:30N 37°16' E 012°42'2021.0
2015-May-24 21:33N 37°08' E 013°05'2120.8
2015-May-24 20:33N 36°59' E 013°29'2020.6
2015-May-24 19:33N 36°51' E 013°52'2121.1
2015-May-24 18:33N 36°42' E 014°16'2020.2
2015-May-24 17:33N 36°35' E 014°40'2220.7
2015-May-24 16:30N 36°28' E 015°05'78420.7
2015-May-23 02:33N 32°14' E 030°04'2419.5
2015-May-23 01:21N 32°07' E 030°30'1719.4
2015-May-23 00:28N 32°00' E 030°49'5418.5
2015-May-22 21:33N 31°39' E 031°47'1111.0
2015-May-22 20:33N 31°28' E 031°45'0 0.3
2015-May-22 19:05N 31°28' E 031°45'106 2.4
2015-May-20 22:21N 29°50' E 032°35'0 0.0
2015-May-20 21:30N 29°50' E 032°35'0 0.0
2015-May-20 20:31N 29°50' E 032°35'0 0.0
2015-May-20 19:31N 29°50' E 032°35'0 0.0
2015-May-20 18:33N 29°50' E 032°35'  
Track history (hours):
 
Tides and Currents Weather Stations Pressure Air Temp Water Temp Dewpoint Dewpoint Depression Visibility Wind Speed Wind Dir Waves Ship Positions

Shanghai Express

Last reported at 2015-May-27 03:29 UTC. Time now 2015-May-27 03:56 UTC.
Position N 36°23' W 002°34'.

Length 320.6 m; beam 42.8 m; draft 14.5 m.

Type: Ship (hazmat cat A). MMSI: 211367460.

Date/timePositionNaut miles runAvg speedWind from/ knotsBaromVisibWave heightAir tempDewpointWater temp
2015-May-27 03:29N 36°23' W 002°34'1919.4
2015-May-27 02:31N 36°26' W 002°11'1919.2
2015-May-27 01:33N 36°31' W 001°49'2119.3
2015-May-27 00:28N 36°36' W 001°24'1819.2
2015-May-26 23:33N 36°40' W 001°03'1918.8
2015-May-26 22:33N 36°45' W 000°40'1919.1
2015-May-26 21:33N 36°50' W 000°17'1919.1
2015-May-26 20:34N 36°55' E 000°06'1919.0
2015-May-26 19:33N 37°00' E 000°29'1919.0
2015-May-26 18:33N 37°05' E 000°52'1919.1
2015-May-26 17:33N 37°11' E 001°15'1919.2
2015-May-26 16:33N 37°15' E 001°39'1918.5
2015-May-26 15:33N 37°20' E 002°01'1818.4
2015-May-26 14:33N 37°25' E 002°24'5818.7
2015-May-26 11:26N 37°40' E 003°35'24918.6
2015-May-25 22:04N 38°45' E 008°40'1318.9
2015-May-25 21:24N 38°48' E 008°56'1617.9
2015-May-25 20:32N 39°01' E 009°07'1211.8
2015-May-25 19:33N 39°13' E 009°05'0 0.5
2015-May-25 18:33N 39°13' E 009°04'0 0.0
2015-May-25 17:33N 39°13' E 009°04'0 0.0
2015-May-25 16:32N 39°13' E 009°04'0 0.0
2015-May-25 15:32N 39°13' E 009°04'0 0.0
2015-May-25 14:31N 39°13' E 009°04'0 0.0
2015-May-25 13:31N 39°13' E 009°04'0 0.0
2015-May-25 12:31N 39°13' E 009°04'0 0.0
2015-May-25 11:33N 39°13' E 009°04'0 0.0
2015-May-25 10:33N 39°13' E 009°04'0 0.0
2015-May-25 09:33N 39°13' E 009°04'9 7.5
2015-May-25 08:19N 39°05' E 009°10'19920.3
2015-May-24 22:30N 37°16' E 012°42'2021.0
2015-May-24 21:33N 37°08' E 013°05'2120.8
2015-May-24 20:33N 36°59' E 013°29'2020.6
2015-May-24 19:33N 36°51' E 013°52'2121.1
2015-May-24 18:33N 36°42' E 014°16'2020.2
2015-May-24 17:33N 36°35' E 014°40'2220.7
2015-May-24 16:30N 36°28' E 015°05'78420.7
2015-May-23 02:33N 32°14' E 030°04'2419.5
2015-May-23 01:21N 32°07' E 030°30'1719.4
2015-May-23 00:28N 32°00' E 030°49'5418.5
2015-May-22 21:33N 31°39' E 031°47'1111.0
2015-May-22 20:33N 31°28' E 031°45'0 0.3
2015-May-22 19:05N 31°28' E 031°45'106 2.4
2015-May-20 22:21N 29°50' E 032°35'0 0.0
2015-May-20 21:30N 29°50' E 032°35'0 0.0
2015-May-20 20:31N 29°50' E 032°35'0 0.0
2015-May-20 19:31N 29°50' E 032°35'0 0.0
2015-May-20 18:33N 29°50' E 032°35'  

Dump ship's entire track history